Time;durP1;ratioP1;P1;durP2;ratioP2;P2;SDS_P1;SDS_P2;PMS_P1;PMS_P2;Temp;Humidity;BMP_temperature;BMP_pressure;BME280_temperature;BME280_humidity;BME280_pressure;Samples;Min_cycle;Max_cycle;Signal;HPM_P1;HPM_P2
2023/04/28 00:01:15;;;;;;;5.73;2.30;;;;;;;8.38;39.31;95123.75;5022146;28;20233;-70
2023/04/28 00:03:41;;;;;;;3.60;2.20;;;;;;;8.36;39.25;95123.88;5023920;28;20258;-70
2023/04/28 00:06:06;;;;;;;3.27;2.13;;;;;;;8.38;39.06;95127.22;5035245;28;20177;-69
2023/04/28 00:08:32;;;;;;;2.60;2.33;;;;;;;8.41;39.43;95126.13;5031434;28;20229;-70
2023/04/28 00:10:57;;;;;;;4.43;2.13;;;;;;;8.38;39.34;95126.38;5033228;28;20225;-69
2023/04/28 00:13:23;;;;;;;2.53;2.27;;;;;;;8.26;39.39;95120.44;5028439;28;20275;-70
2023/04/28 00:15:51;;;;;;;4.07;2.10;;;;;;;8.29;39.52;95124.59;5027966;28;20189;-69
2023/04/28 00:18:17;;;;;;;3.87;2.47;;;;;;;8.18;39.16;95123.72;5027064;28;20213;-69
2023/04/28 00:20:43;;;;;;;4.80;2.37;;;;;;;8.06;39.61;95123.97;5024874;28;20222;-70
2023/04/28 00:23:08;;;;;;;4.70;2.57;;;;;;;8.00;40.05;95129.75;5027622;28;20236;-70
2023/04/28 00:25:34;;;;;;;2.50;2.30;;;;;;;8.05;39.57;95124.94;5036789;28;20221;-69
2023/04/28 00:28:00;;;;;;;4.97;2.40;;;;;;;8.03;39.68;95130.31;5032910;28;20312;-69
2023/04/28 00:30:26;;;;;;;3.03;2.13;;;;;;;8.10;39.85;95130.56;5035377;28;20280;-69
2023/04/28 00:32:51;;;;;;;4.60;2.23;;;;;;;8.13;40.22;95127.72;5019346;28;20286;-70
2023/04/28 00:35:17;;;;;;;3.33;2.10;;;;;;;8.14;39.97;95126.75;5029943;28;20229;-70
2023/04/28 00:37:42;;;;;;;3.40;2.27;;;;;;;8.22;39.66;95129.53;5034836;28;20276;-69
2023/04/28 00:40:08;;;;;;;4.13;2.10;;;;;;;8.10;39.97;95133.19;5031850;28;20225;-70
2023/04/28 00:42:34;;;;;;;3.30;2.13;;;;;;;7.97;40.20;95138.69;5030001;28;20194;-71
2023/04/28 00:45:04;;;;;;;3.83;2.00;;;;;;;8.08;40.11;95133.34;5030707;28;20218;-71
2023/04/28 00:47:31;;;;;;;3.30;2.27;;;;;;;7.83;40.47;95132.03;5022527;28;20226;-70
2023/04/28 00:49:58;;;;;;;3.67;2.40;;;;;;;7.94;40.37;95134.56;5026615;28;20225;-70
2023/04/28 00:52:23;;;;;;;4.53;2.60;;;;;;;7.91;40.35;95133.97;5031724;28;20232;-70
2023/04/28 00:54:49;;;;;;;4.13;2.13;;;;;;;7.91;40.29;95134.81;5026510;28;20185;-70
2023/04/28 00:57:15;;;;;;;4.67;2.20;;;;;;;7.81;40.32;95138.38;5047603;28;20173;-69
2023/04/28 00:59:40;;;;;;;3.60;2.40;;;;;;;7.66;40.95;95143.09;5033711;28;20217;-70
2023/04/28 01:02:06;;;;;;;3.63;2.20;;;;;;;7.51;41.22;95143.47;5032799;28;20233;-69
2023/04/28 01:04:32;;;;;;;3.70;2.30;;;;;;;7.26;41.90;95147.28;5025553;28;20229;-70
2023/04/28 01:06:59;;;;;;;4.00;2.43;;;;;;;7.20;42.24;95145.19;5032365;28;20233;-70
2023/04/28 01:09:26;;;;;;;3.60;2.23;;;;;;;7.30;41.90;95142.66;5006880;28;20216;-69
2023/04/28 01:11:51;;;;;;;3.07;2.30;;;;;;;7.15;41.92;95147.38;5030032;28;20226;-69
2023/04/28 01:14:17;;;;;;;5.77;2.20;;;;;;;7.29;41.68;95154.06;5023451;28;20221;-70
2023/04/28 01:16:43;;;;;;;4.23;2.20;;;;;;;7.32;41.85;95140.72;5033430;28;20227;-70
2023/04/28 01:19:18;;;;;;;3.87;2.40;;;;;;;7.21;41.81;95140.78;5025317;28;20573;-71
2023/04/28 01:21:43;;;;;;;5.37;2.40;;;;;;;7.37;41.67;95150.81;5024862;28;20194;-68
2023/04/28 01:24:09;;;;;;;6.87;2.63;;;;;;;7.36;41.73;95155.22;5027457;28;20187;-67
2023/04/28 01:26:34;;;;;;;4.43;2.20;;;;;;;7.41;41.30;95145.19;5027884;28;20228;-67
2023/04/28 01:29:00;;;;;;;3.53;2.30;;;;;;;7.34;41.32;95151.88;5023000;28;20764;-69
2023/04/28 01:31:25;;;;;;;6.27;2.70;;;;;;;7.41;41.31;95153.03;5028650;28;20225;-69
2023/04/28 01:33:51;;;;;;;4.70;2.30;;;;;;;7.39;41.15;95161.97;5033273;28;20189;-69
2023/04/28 01:36:16;;;;;;;4.63;2.20;;;;;;;7.51;40.94;95156.53;5028839;28;20186;-68
2023/04/28 01:38:42;;;;;;;3.97;2.50;;;;;;;7.54;40.47;95152.84;5024563;28;20217;-69
2023/04/28 01:41:07;;;;;;;3.27;2.27;;;;;;;7.47;41.11;95159.53;5016596;28;20228;-69
2023/04/28 01:43:32;;;;;;;4.10;2.70;;;;;;;7.44;40.43;95150.16;5032883;28;20213;-68
2023/04/28 01:45:58;;;;;;;4.03;2.67;;;;;;;7.42;41.00;95149.47;5030287;28;20237;-67
2023/04/28 01:48:23;;;;;;;3.23;2.27;;;;;;;7.44;40.77;95150.16;5029334;28;20284;-68
2023/04/28 01:50:49;;;;;;;4.17;2.60;;;;;;;7.40;40.70;95148.75;5032493;28;20287;-68
2023/04/28 01:53:14;;;;;;;5.20;2.10;;;;;;;7.37;40.65;95148.19;5028449;28;20236;-69
2023/04/28 01:55:39;;;;;;;3.93;2.47;;;;;;;7.38;40.79;95153.31;5025654;28;20267;-69
2023/04/28 01:58:06;;;;;;;3.53;2.30;;;;;;;7.31;41.02;95153.94;5032682;28;20225;-68
2023/04/28 02:00:31;;;;;;;2.40;2.00;;;;;;;7.24;40.78;95151.00;5026366;28;20197;-67
2023/04/28 02:02:56;;;;;;;3.80;2.03;;;;;;;7.26;40.56;95152.53;5024841;28;20288;-69
2023/04/28 02:05:22;;;;;;;3.60;2.60;;;;;;;7.23;40.92;95159.81;5030619;28;20232;-69
2023/04/28 02:07:47;;;;;;;4.50;2.27;;;;;;;7.15;40.99;95157.81;5020369;28;20230;-69
2023/04/28 02:10:13;;;;;;;4.70;2.50;;;;;;;7.05;41.31;95159.53;5040938;28;20233;-69
2023/04/28 02:12:40;;;;;;;4.57;2.50;;;;;;;6.89;41.58;95167.00;5027359;28;20220;-68
2023/04/28 02:15:06;;;;;;;4.23;2.60;;;;;;;7.06;41.47;95164.66;5021198;28;20193;-69
2023/04/28 02:17:32;;;;;;;2.90;2.30;;;;;;;6.71;42.28;95166.69;5028281;28;20240;-69
2023/04/28 02:19:57;;;;;;;4.00;2.40;;;;;;;6.89;41.96;95167.81;5030648;28;20230;-69
2023/04/28 02:22:23;;;;;;;4.67;2.70;;;;;;;6.95;41.78;95162.09;5029069;28;20229;-69
2023/04/28 02:24:50;;;;;;;5.60;2.40;;;;;;;6.94;41.64;95168.28;5042529;28;20194;-70
2023/04/28 02:27:16;;;;;;;3.83;2.50;;;;;;;6.91;42.17;95173.75;5031700;28;20293;-69
2023/04/28 02:29:41;;;;;;;2.93;2.37;;;;;;;6.88;41.92;95174.00;5032595;28;20739;-68
2023/04/28 02:32:07;;;;;;;5.13;2.80;;;;;;;6.90;41.77;95169.50;5032016;28;20221;-69
2023/04/28 02:34:33;;;;;;;3.37;2.37;;;;;;;6.77;42.08;95171.44;5021970;28;20225;-70
2023/04/28 02:36:58;;;;;;;7.23;2.23;;;;;;;6.87;42.23;95166.28;5033005;28;20225;-69
2023/04/28 02:39:25;;;;;;;2.73;2.43;;;;;;;6.90;41.85;95179.94;5029766;28;20829;-69
2023/04/28 02:41:55;;;;;;;3.10;2.50;;;;;;;6.89;42.06;95165.19;5027459;28;20217;-68
2023/04/28 02:44:21;;;;;;;3.97;2.33;;;;;;;6.72;42.11;95184.06;5016360;28;20224;-72
2023/04/28 02:46:46;;;;;;;6.47;2.43;;;;;;;6.82;42.25;95174.50;5027104;28;20222;-70
2023/04/28 02:49:12;;;;;;;3.63;2.30;;;;;;;6.93;42.07;95181.47;5029944;28;20233;-71
2023/04/28 02:51:38;;;;;;;4.53;2.10;;;;;;;6.71;42.10;95180.63;5027227;28;20198;-70
2023/04/28 02:54:04;;;;;;;3.53;2.27;;;;;;;6.85;42.40;95192.56;5027114;28;20226;-71
2023/04/28 02:56:29;;;;;;;3.17;2.53;;;;;;;6.80;42.47;95186.88;5032946;28;20305;-69
2023/04/28 02:58:56;;;;;;;4.77;2.37;;;;;;;6.79;42.33;95195.66;5028711;28;20238;-71
2023/04/28 03:01:22;;;;;;;4.73;2.80;;;;;;;6.78;42.19;95191.38;5037498;28;20264;-72
2023/04/28 03:03:47;;;;;;;5.17;2.57;;;;;;;6.78;42.45;95200.06;5008762;28;20202;-71
2023/04/28 03:06:13;;;;;;;3.10;2.57;;;;;;;6.89;42.15;95198.34;5007647;28;20200;-70
2023/04/28 03:08:38;;;;;;;3.53;2.40;;;;;;;6.82;42.29;95192.81;5017300;28;20230;-71
2023/04/28 03:11:04;;;;;;;5.70;2.70;;;;;;;6.85;42.19;95193.38;5009361;28;20222;-68
2023/04/28 03:13:29;;;;;;;5.70;2.33;;;;;;;6.80;42.42;95198.16;5028720;28;20232;-70
2023/04/28 03:15:55;;;;;;;4.40;2.70;;;;;;;6.65;42.29;95188.94;5006047;28;20195;-70
2023/04/28 03:18:21;;;;;;;4.50;2.30;;;;;;;6.67;42.51;95196.66;5011208;28;20235;-70
2023/04/28 03:20:47;;;;;;;4.10;2.67;;;;;;;6.54;43.15;95189.78;5019536;28;20226;-69
2023/04/28 03:23:12;;;;;;;3.40;2.30;;;;;;;6.51;42.75;95202.28;5004956;28;20240;-68
2023/04/28 03:25:38;;;;;;;6.17;2.83;;;;;;;6.65;42.25;95209.00;5014161;28;20229;-70
2023/04/28 03:28:04;;;;;;;3.43;2.40;;;;;;;6.53;42.55;95211.66;5012601;28;20227;-70
2023/04/28 03:30:29;;;;;;;4.17;2.57;;;;;;;6.59;42.57;95216.38;5028687;28;20312;-70
2023/04/28 03:32:55;;;;;;;4.10;2.30;;;;;;;6.72;42.09;95223.25;5015623;28;20222;-68
2023/04/28 03:35:20;;;;;;;3.10;2.40;;;;;;;6.57;42.61;95231.34;5015150;28;20264;-68
2023/04/28 03:37:46;;;;;;;4.37;2.17;;;;;;;6.67;42.17;95230.63;5015877;28;20218;-70
2023/04/28 03:40:12;;;;;;;4.40;2.50;;;;;;;6.73;41.75;95237.97;5008492;28;20226;-69
2023/04/28 03:42:37;;;;;;;5.37;2.90;;;;;;;6.80;41.70;95232.13;5018392;28;20190;-69
2023/04/28 03:45:03;;;;;;;3.03;2.40;;;;;;;6.82;41.29;95234.63;5017995;28;20226;-72
2023/04/28 03:47:28;;;;;;;4.33;2.60;;;;;;;6.89;41.50;95242.78;5018941;28;20234;-71
2023/04/28 03:49:54;;;;;;;5.07;2.90;;;;;;;6.76;41.60;95250.78;5019416;28;20226;-71
2023/04/28 03:52:19;;;;;;;3.63;2.30;;;;;;;6.79;41.63;95245.31;5013984;28;20279;-72
2023/04/28 03:54:45;;;;;;;3.80;2.17;;;;;;;6.67;41.64;95241.91;5008040;28;20189;-71
2023/04/28 03:57:11;;;;;;;6.17;2.80;;;;;;;6.73;41.84;95251.84;5015469;28;20192;-71
2023/04/28 03:59:36;;;;;;;2.80;2.10;;;;;;;6.77;41.45;95249.84;5002591;28;20226;-69
2023/04/28 04:02:02;;;;;;;4.20;2.77;;;;;;;6.74;41.76;95255.31;5014692;28;20316;-71
2023/04/28 04:04:27;;;;;;;3.20;2.40;;;;;;;6.88;41.35;95265.50;5013290;28;20234;-71
2023/04/28 04:06:53;;;;;;;5.50;2.93;;;;;;;7.00;41.13;95264.53;5036981;28;20186;-69
2023/04/28 04:09:18;;;;;;;2.97;2.67;;;;;;;6.71;41.29;95271.22;5016861;28;20189;-71
2023/04/28 04:11:44;;;;;;;5.30;2.73;;;;;;;6.88;41.20;95268.09;5014697;28;20671;-71
2023/04/28 04:14:10;;;;;;;6.63;2.77;;;;;;;6.81;40.89;95270.38;5017135;28;20627;-71
2023/04/28 04:16:36;;;;;;;5.83;2.90;;;;;;;6.87;41.00;95269.06;5020078;28;20241;-71
2023/04/28 04:19:01;;;;;;;4.13;2.40;;;;;;;6.88;41.41;95275.13;5006886;28;20256;-71
2023/04/28 04:21:28;;;;;;;3.00;2.33;;;;;;;6.93;41.00;95280.81;5032115;28;20213;-70
2023/04/28 04:23:53;;;;;;;5.03;2.90;;;;;;;7.04;40.71;95273.75;5033058;28;20309;-70
2023/04/28 04:26:20;;;;;;;4.63;2.83;;;;;;;7.05;40.93;95275.41;5015742;28;20236;-70
2023/04/28 04:28:45;;;;;;;4.90;2.47;;;;;;;7.01;40.62;95284.47;5032387;28;20316;-70
2023/04/28 04:31:11;;;;;;;4.77;2.40;;;;;;;7.21;40.19;95290.69;5016216;28;20230;-69
2023/04/28 04:33:39;;;;;;;5.33;2.60;;;;;;;7.11;40.24;95289.81;5010258;28;20198;-67
2023/04/28 04:36:05;;;;;;;4.77;2.70;;;;;;;7.06;40.32;95286.72;5018355;28;20218;-71
2023/04/28 04:38:31;;;;;;;3.27;2.37;;;;;;;7.11;40.47;95288.94;5029682;28;20218;-69
2023/04/28 04:40:56;;;;;;;4.03;2.53;;;;;;;7.07;40.54;95283.97;5031385;28;20314;-71
2023/04/28 04:43:22;;;;;;;4.43;2.57;;;;;;;7.13;40.33;95287.03;5016831;28;20218;-70
2023/04/28 04:45:47;;;;;;;4.57;2.40;;;;;;;7.16;39.92;95289.41;5025252;28;20212;-69
2023/04/28 04:48:13;;;;;;;3.47;2.63;;;;;;;7.13;40.70;95297.50;5024127;28;20217;-69
2023/04/28 04:50:40;;;;;;;4.43;2.73;;;;;;;7.20;40.53;95299.50;5018431;28;20237;-75
2023/04/28 04:53:05;;;;;;;4.77;2.83;;;;;;;7.00;40.63;95305.50;5017908;28;20218;-73
2023/04/28 04:55:30;;;;;;;3.50;2.80;;;;;;;7.21;40.32;95306.38;5012951;28;20226;-73
2023/04/28 04:57:56;;;;;;;3.43;2.70;;;;;;;7.24;40.24;95308.78;5017133;28;20198;-75
2023/04/28 05:00:21;;;;;;;6.53;3.27;;;;;;;7.11;40.27;95304.63;5014329;28;20189;-75
2023/04/28 05:02:47;;;;;;;5.93;3.13;;;;;;;7.39;40.07;95319.75;5032733;28;20232;-74
2023/04/28 05:05:12;;;;;;;4.00;2.73;;;;;;;7.31;40.05;95314.31;5023114;28;20221;-74
2023/04/28 05:07:38;;;;;;;5.47;2.87;;;;;;;7.38;39.73;95312.88;5032343;28;20229;-73
2023/04/28 05:10:04;;;;;;;4.17;3.00;;;;;;;7.47;39.93;95321.75;5031284;28;20256;-75
2023/04/28 05:12:29;;;;;;;5.77;2.50;;;;;;;7.50;39.64;95317.09;5023640;28;20210;-74
2023/04/28 05:14:54;;;;;;;6.33;2.70;;;;;;;7.48;39.72;95308.56;5038661;28;20231;-73
2023/04/28 05:17:24;;;;;;;4.03;2.60;;;;;;;7.66;39.83;95327.13;5031856;28;20217;-76
2023/04/28 05:19:50;;;;;;;4.37;2.47;;;;;;;7.58;39.71;95313.03;5037114;28;20221;-74
2023/04/28 05:22:15;;;;;;;7.00;3.17;;;;;;;7.59;39.90;95306.81;5019499;28;20595;-68
2023/04/28 05:24:41;;;;;;;5.00;2.70;;;;;;;7.62;39.00;95320.50;5032303;28;20196;-75
2023/04/28 05:27:06;;;;;;;3.77;2.80;;;;;;;7.78;39.14;95320.06;5035332;28;20213;-76
2023/04/28 05:29:32;;;;;;;4.40;2.83;;;;;;;7.69;39.58;95312.97;5032403;28;20221;-73
2023/04/28 05:31:57;;;;;;;5.37;2.50;;;;;;;7.80;39.49;95312.91;5041428;28;20218;-71
2023/04/28 05:34:23;;;;;;;4.80;2.57;;;;;;;7.55;40.26;95314.13;5031781;28;20271;-70
2023/04/28 05:36:48;;;;;;;6.33;3.03;;;;;;;7.70;40.25;95314.66;5030894;28;20193;-72
2023/04/28 05:39:14;;;;;;;5.40;2.93;;;;;;;7.78;40.02;95306.13;5025899;28;20209;-67
2023/04/28 05:41:39;;;;;;;4.87;3.00;;;;;;;7.74;40.14;95309.00;5028429;28;20221;-73
2023/04/28 05:44:05;;;;;;;4.37;2.97;;;;;;;7.83;40.00;95307.44;5026885;28;20221;-74
2023/04/28 05:46:30;;;;;;;6.23;2.93;;;;;;;8.02;40.05;95311.13;5026505;28;20224;-73
2023/04/28 05:48:56;;;;;;;5.00;2.97;;;;;;;7.91;39.93;95305.00;5026650;28;20275;-74
2023/04/28 05:51:22;;;;;;;6.20;2.70;;;;;;;7.98;39.64;95305.31;5031309;28;20203;-76
2023/04/28 05:53:47;;;;;;;6.33;3.10;;;;;;;7.98;39.84;95310.56;5024016;28;20225;-72
2023/04/28 05:56:15;;;;;;;5.73;2.60;;;;;;;8.11;39.90;95307.75;5032411;28;20221;-68
2023/04/28 05:58:40;;;;;;;4.27;2.53;;;;;;;8.29;39.30;95319.28;5028919;28;20237;-72
2023/04/28 06:01:06;;;;;;;4.77;2.87;;;;;;;8.15;39.58;95319.59;5031791;28;20265;-71
2023/04/28 06:03:31;;;;;;;3.93;2.60;;;;;;;8.26;39.21;95316.06;5018094;28;20200;-67
2023/04/28 06:05:57;;;;;;;6.10;2.80;;;;;;;8.34;39.10;95321.47;5028031;28;20640;-72
2023/04/28 06:08:22;;;;;;;2.97;2.60;;;;;;;8.26;38.85;95318.69;5031840;28;20221;-72
2023/04/28 06:10:48;;;;;;;6.30;2.30;;;;;;;8.43;38.38;95309.44;5030570;28;20218;-73
2023/04/28 06:13:13;;;;;;;4.93;2.77;;;;;;;8.57;38.35;95312.53;5029343;28;20228;-72
2023/04/28 06:15:39;;;;;;;5.33;3.70;;;;;;;8.56;38.08;95317.91;5024395;28;20186;-72
2023/04/28 06:18:08;;;;;;;3.77;2.77;;;;;;;8.47;37.55;95313.44;5028419;28;20190;-74
2023/04/28 06:20:34;;;;;;;4.97;2.80;;;;;;;8.37;38.26;95310.78;5028110;28;20229;-74
2023/04/28 06:23:00;;;;;;;5.43;2.40;;;;;;;8.26;37.97;95313.44;5033472;28;20217;-74
2023/04/28 06:25:25;;;;;;;4.50;2.50;;;;;;;8.40;37.92;95321.00;5027987;28;20226;-73
2023/04/28 06:27:51;;;;;;;4.57;2.50;;;;;;;8.45;38.28;95323.25;5034479;28;20268;-73
2023/04/28 06:30:20;;;;;;;2.80;2.20;;;;;;;8.57;38.15;95324.81;5034316;28;20332;-68
2023/04/28 06:32:46;;;;;;;5.20;2.40;;;;;;;8.39;38.31;95316.72;5036850;28;20233;-64
2023/04/28 06:35:12;;;;;;;7.17;3.07;;;;;;;8.47;37.76;95319.50;5033045;28;20232;-64
2023/04/28 06:37:37;;;;;;;5.53;2.87;;;;;;;8.55;37.56;95318.84;5026163;28;20216;-71
2023/04/28 06:40:03;;;;;;;4.87;2.53;;;;;;;8.50;37.70;95321.91;5031940;28;20305;-72
2023/04/28 06:42:28;;;;;;;7.77;2.60;;;;;;;8.57;37.05;95319.56;5021540;28;20182;-75
2023/04/28 06:44:54;;;;;;;5.23;2.40;;;;;;;8.50;37.72;95311.41;5036760;28;20243;-73
2023/04/28 06:47:20;;;;;;;3.57;2.60;;;;;;;8.65;37.20;95314.47;5032736;28;20229;-70
2023/04/28 06:49:48;;;;;;;4.47;2.50;;;;;;;8.56;37.72;95305.63;5029574;28;20304;-70
2023/04/28 06:52:14;;;;;;;3.67;2.60;;;;;;;8.65;37.24;95311.88;5033263;28;20223;-73
2023/04/28 06:54:40;;;;;;;4.87;2.87;;;;;;;8.68;36.71;95308.16;5030335;28;20189;-68
2023/04/28 06:57:05;;;;;;;3.67;2.60;;;;;;;8.84;37.08;95309.28;5037412;28;20201;-67
2023/04/28 06:59:31;;;;;;;2.90;2.27;;;;;;;8.90;36.99;95302.72;5038007;28;20221;-69
2023/04/28 07:01:56;;;;;;;6.73;2.60;;;;;;;9.08;36.95;95305.50;5022820;28;20267;-68
2023/04/28 07:04:22;;;;;;;5.20;2.70;;;;;;;9.15;36.00;95308.41;5033660;28;20221;-70
2023/04/28 07:06:47;;;;;;;4.00;2.20;;;;;;;9.28;34.67;95309.00;5029912;28;20186;-67
2023/04/28 07:09:14;;;;;;;4.13;2.97;;;;;;;9.22;35.08;95314.75;5029459;28;20193;-67
2023/04/28 07:11:40;;;;;;;6.10;2.40;;;;;;;8.97;35.65;95298.56;5045686;28;20964;-68
2023/04/28 07:14:07;;;;;;;5.33;2.97;;;;;;;9.21;35.61;95295.56;5030337;28;20226;-67
2023/04/28 07:16:32;;;;;;;5.23;2.80;;;;;;;9.34;35.60;95304.97;5029687;28;20287;-68
2023/04/28 07:18:58;;;;;;;3.37;2.70;;;;;;;9.42;35.59;95299.88;5036683;28;20226;-72
2023/04/28 07:21:23;;;;;;;5.53;2.90;;;;;;;9.42;35.62;95297.25;5034447;28;20178;-70
2023/04/28 07:23:49;;;;;;;4.63;3.10;;;;;;;9.72;35.56;95312.03;5034281;28;20225;-67
2023/04/28 07:26:15;;;;;;;4.83;2.93;;;;;;;9.54;35.68;95296.13;5029865;28;20225;-67
2023/04/28 07:28:41;;;;;;;5.37;2.60;;;;;;;9.75;35.35;95303.84;5030305;28;20298;-69
2023/04/28 07:31:07;;;;;;;6.50;3.40;;;;;;;9.78;35.21;95294.88;5039958;28;20221;-70
2023/04/28 07:33:32;;;;;;;4.93;2.40;;;;;;;9.82;35.07;95293.63;5032335;28;20195;-70
2023/04/28 07:35:58;;;;;;;5.63;2.87;;;;;;;9.87;34.45;95294.88;5027790;28;20225;-67
2023/04/28 07:38:23;;;;;;;6.27;2.83;;;;;;;9.88;35.05;95303.56;5034710;28;20213;-68
2023/04/28 07:40:49;;;;;;;4.57;2.60;;;;;;;9.90;34.67;95297.22;5024671;28;20270;-67
2023/04/28 07:43:15;;;;;;;5.30;2.70;;;;;;;9.97;35.08;95309.78;5029695;28;20232;-67
2023/04/28 07:45:40;;;;;;;5.23;2.60;;;;;;;10.03;34.00;95296.91;5027442;28;20209;-66
2023/04/28 07:48:06;;;;;;;5.18;2.83;;;;;;;9.98;34.80;95303.56;5036757;28;20212;-68
2023/04/28 07:50:33;;;;;;;8.47;2.47;;;;;;;9.96;34.84;95302.88;5030092;28;20268;-68
2023/04/28 07:52:58;;;;;;;4.53;3.17;;;;;;;9.88;35.01;95308.81;5031164;28;20309;-68
2023/04/28 07:55:24;;;;;;;3.90;2.60;;;;;;;9.98;34.89;95291.25;5029755;28;20225;-69
2023/04/28 07:57:49;;;;;;;5.13;3.00;;;;;;;10.10;34.98;95308.53;5032564;28;20189;-64
2023/04/28 08:00:16;;;;;;;4.37;2.80;;;;;;;10.33;33.88;95301.16;5026663;28;20181;-66
2023/04/28 08:02:41;;;;;;;4.50;2.63;;;;;;;10.27;33.74;95304.38;5026459;28;20276;-64
2023/04/28 08:05:08;;;;;;;5.23;2.60;;;;;;;10.37;34.01;95294.66;5030311;28;20249;-65
2023/04/28 08:07:35;;;;;;;4.43;2.40;;;;;;;10.12;33.74;95303.13;5034839;28;20236;-65
2023/04/28 08:10:01;;;;;;;3.70;2.87;;;;;;;10.23;33.46;95302.94;5037234;28;20660;-65
2023/04/28 08:12:27;;;;;;;4.17;2.20;;;;;;;10.38;33.26;95300.72;5031454;28;20186;-66
2023/04/28 08:14:52;;;;;;;4.40;2.77;;;;;;;10.31;32.89;95299.63;5034258;28;20284;-67
2023/04/28 08:17:18;;;;;;;4.43;2.37;;;;;;;10.31;33.27;95289.94;5032758;28;20285;-66
2023/04/28 08:19:45;;;;;;;4.55;2.30;;;;;;;10.43;33.74;95297.69;5027250;28;21094;-65
2023/04/28 08:22:11;;;;;;;5.07;2.53;;;;;;;10.56;33.50;95296.38;5032892;28;20309;-66
2023/04/28 08:24:36;;;;;;;3.97;2.57;;;;;;;10.54;33.11;95294.88;5026491;28;20205;-65
2023/04/28 08:27:02;;;;;;;5.03;2.10;;;;;;;10.48;32.63;95300.72;5030557;28;20221;-68
2023/04/28 08:29:31;;;;;;;5.93;2.50;;;;;;;10.50;32.66;95299.56;5029952;28;20229;-66
2023/04/28 08:31:57;;;;;;;2.13;1.93;;;;;;;10.57;31.98;95298.03;5024650;28;20709;-68
2023/04/28 08:34:23;;;;;;;2.47;1.92;;;;;;;10.66;31.12;95288.44;5030491;28;20224;-70
2023/04/28 08:36:48;;;;;;;4.43;2.47;;;;;;;10.68;32.09;95285.66;5033601;28;20231;-64
2023/04/28 08:39:14;;;;;;;3.92;2.00;;;;;;;10.72;31.89;95285.25;5033849;28;20216;-63
2023/04/28 08:41:40;;;;;;;3.90;2.08;;;;;;;10.81;31.95;95292.25;5027487;28;20304;-63
2023/04/28 08:44:10;;;;;;;3.80;2.20;;;;;;;10.93;31.60;95282.38;5024055;28;20367;-68
2023/04/28 08:46:40;;;;;;;3.17;2.20;;;;;;;10.88;31.39;95276.72;5033455;28;20217;-70
2023/04/28 08:49:11;;;;;;;4.33;2.23;;;;;;;11.01;31.50;95271.06;5029098;28;20234;-66
2023/04/28 08:51:46;;;;;;;2.37;2.00;;;;;;;10.94;31.91;95276.13;5033409;28;20181;-68
2023/04/28 08:54:14;;;;;;;2.53;2.03;;;;;;;10.81;32.19;95281.72;5046194;28;20300;-65
2023/04/28 08:56:44;;;;;;;3.40;2.33;;;;;;;10.89;30.95;95272.28;5043699;28;20314;-65
2023/04/28 08:59:11;;;;;;;3.67;1.93;;;;;;;10.86;31.07;95283.09;5048726;28;20218;-65
2023/04/28 09:01:37;;;;;;;2.63;2.30;;;;;;;10.86;31.10;95272.56;5043091;28;20225;-65
2023/04/28 09:04:03;;;;;;;4.97;2.08;;;;;;;10.92;31.23;95271.97;5038659;28;20227;-65
2023/04/28 09:06:34;;;;;;;4.60;2.37;;;;;;;10.96;31.65;95270.69;5045702;28;20270;-65
2023/04/28 09:09:18;;;;;;;3.10;2.42;;;;;;;11.04;31.73;95268.16;5031107;28;20228;-68
2023/04/28 09:11:54;;;;;;;4.13;2.50;;;;;;;11.14;31.56;95261.00;5032856;28;20330;-68
2023/04/28 09:14:20;;;;;;;3.83;2.57;;;;;;;11.28;31.25;95254.44;5030528;28;20284;-69
2023/04/28 09:16:46;;;;;;;3.50;2.25;;;;;;;11.36;31.30;95253.66;5028734;28;20363;-68
2023/04/28 09:19:11;;;;;;;2.60;1.93;;;;;;;11.44;31.65;95254.56;5036276;28;20252;-67
2023/04/28 09:21:47;;;;;;;4.85;2.47;;;;;;;11.41;32.21;95239.09;5033641;28;20559;-68
2023/04/28 09:24:25;;;;;;;3.30;2.42;;;;;;;11.65;31.42;95245.50;5027335;28;20218;-68
2023/04/28 09:26:50;;;;;;;3.05;2.10;;;;;;;11.78;31.55;95243.31;5029637;28;20226;-68
2023/04/28 09:29:16;;;;;;;3.40;2.47;;;;;;;12.01;30.92;95238.41;5026408;28;20246;-67
2023/04/28 09:31:42;;;;;;;5.00;2.50;;;;;;;12.13;30.46;95228.41;5027372;28;20225;-67
2023/04/28 09:34:08;;;;;;;4.45;2.22;;;;;;;12.17;30.39;95244.75;5029553;28;20274;-68
2023/04/28 09:36:33;;;;;;;3.73;2.10;;;;;;;12.20;29.77;95231.25;5030181;28;20264;-70
2023/04/28 09:39:00;;;;;;;3.93;2.03;;;;;;;12.18;29.33;95228.78;5049251;28;20229;-70
2023/04/28 09:41:42;;;;;;;3.80;3.00;;;;;;;12.35;29.57;95230.53;5045059;28;20229;-71
2023/04/28 09:44:18;;;;;;;3.72;2.05;;;;;;;12.57;29.79;95218.59;5031098;28;20284;-70
2023/04/28 09:46:46;;;;;;;4.13;2.92;;;;;;;12.64;30.03;95224.03;5037494;28;20244;-70
2023/04/28 09:49:12;;;;;;;4.25;2.40;;;;;;;12.72;29.34;95220.59;5025972;28;20248;-70
2023/04/28 09:51:38;;;;;;;3.10;2.15;;;;;;;12.91;29.05;95214.22;5035576;28;20190;-71
2023/04/28 09:54:04;;;;;;;4.13;2.70;;;;;;;12.86;28.50;95212.09;5021651;28;20307;-70
2023/04/28 09:56:32;;;;;;;4.57;2.13;;;;;;;12.97;28.71;95206.50;5027837;28;20363;-70
2023/04/28 09:58:58;;;;;;;6.97;2.60;;;;;;;12.95;27.76;95207.66;5040685;28;20224;-70
2023/04/28 10:01:31;;;;;;;6.40;2.00;;;;;;;12.82;28.48;95202.81;5028649;28;20268;-71
2023/04/28 10:03:59;;;;;;;4.07;1.92;;;;;;;13.00;28.28;95202.72;5025608;28;20245;-68
2023/04/28 10:06:27;;;;;;;4.85;2.10;;;;;;;13.10;27.98;95203.41;5030854;28;20181;-68
2023/04/28 10:08:54;;;;;;;4.72;1.80;;;;;;;12.70;29.10;95191.75;5032080;28;20225;-65
2023/04/28 10:11:19;;;;;;;3.90;1.88;;;;;;;12.95;28.70;95197.09;5033018;28;20670;-66
2023/04/28 10:13:45;;;;;;;3.50;2.00;;;;;;;13.11;28.57;95189.19;5031520;28;20217;-67
2023/04/28 10:16:13;;;;;;;4.63;1.92;;;;;;;13.30;27.54;95190.72;5033618;28;20652;-68
2023/04/28 10:18:39;;;;;;;3.15;1.83;;;;;;;13.46;27.19;95190.72;5032840;28;20205;-68
2023/04/28 10:21:06;;;;;;;4.38;1.98;;;;;;;13.50;27.11;95185.97;5026239;28;20201;-68
2023/04/28 10:24:04;;;;;;;5.47;2.00;;;;;;;13.84;27.22;95196.31;5045666;28;20225;-68
2023/04/28 10:27:08;;;;;;;2.95;1.92;;;;;;;13.76;26.63;95193.69;5032489;28;20220;-70
2023/04/28 10:29:35;;;;;;;3.63;1.98;;;;;;;13.85;27.17;95184.78;5008395;28;20258;-69
2023/04/28 10:32:21;;;;;;;2.35;1.80;;;;;;;14.05;26.47;95182.56;4992427;28;20310;-68
2023/04/28 10:34:47;;;;;;;2.28;1.70;;;;;;;14.06;27.08;95176.31;4991913;28;20227;-67
2023/04/28 10:37:17;;;;;;;3.63;1.90;;;;;;;14.32;25.99;95189.25;4987346;28;20223;-68
2023/04/28 10:40:20;;;;;;;2.85;1.70;;;;;;;14.20;25.43;95174.78;5003042;28;20167;-70
2023/04/28 10:42:55;;;;;;;3.03;2.00;;;;;;;14.35;25.78;95172.22;5001774;28;20179;-69
2023/04/28 10:45:58;;;;;;;2.40;1.60;;;;;;;14.40;25.56;95163.78;4986994;28;20194;-69
2023/04/28 10:48:33;;;;;;;4.65;1.92;;;;;;;14.51;25.82;95166.91;4971799;28;20244;-70
2023/04/28 10:51:05;;;;;;;5.30;2.10;;;;;;;14.72;25.37;95155.72;4957641;28;20220;-70
2023/04/28 10:53:47;;;;;;;2.75;1.95;;;;;;;14.81;25.34;95145.09;4954507;28;20227;-69
2023/04/28 10:56:15;;;;;;;2.60;1.88;;;;;;;14.99;24.93;95140.34;4956087;28;20228;-70
2023/04/28 10:58:59;;;;;;;4.20;2.10;;;;;;;15.16;25.24;95143.72;4970940;28;20381;-69
2023/04/28 11:01:25;;;;;;;2.97;1.73;;;;;;;15.29;24.66;95151.03;4957390;28;20238;-71
2023/04/28 11:03:59;;;;;;;3.10;1.70;;;;;;;15.60;23.50;95138.53;4999773;28;20221;-73
2023/04/28 11:06:28;;;;;;;3.67;1.83;;;;;;;15.51;23.88;95136.16;5015044;28;20264;-72
2023/04/28 11:08:55;;;;;;;3.13;1.70;;;;;;;15.49;24.38;95128.38;4988515;28;20250;-67
2023/04/28 11:11:25;;;;;;;3.78;2.15;;;;;;;15.79;24.42;95137.22;4993852;28;20232;-65
2023/04/28 11:13:53;;;;;;;2.92;1.60;;;;;;;15.83;23.54;95135.88;5007788;28;20349;-71
2023/04/28 11:16:21;;;;;;;1.95;1.40;;;;;;;15.95;23.55;95130.13;4991327;28;20238;-68
2023/04/28 11:18:57;;;;;;;4.43;1.70;;;;;;;16.24;23.46;95124.81;5009749;28;20265;-70
2023/04/28 11:21:24;;;;;;;3.38;1.73;;;;;;;16.07;22.72;95126.00;5013997;28;20197;-81
2023/04/28 11:23:51;;;;;;;5.30;1.40;;;;;;;16.04;22.62;95129.03;5040755;28;20309;-69
2023/04/28 11:26:18;;;;;;;3.55;1.95;;;;;;;15.99;23.03;95128.75;5035616;28;20214;-69
2023/04/28 11:28:55;;;;;;;3.40;1.70;;;;;;;15.90;22.38;95114.75;5029068;28;20236;-67
2023/04/28 11:31:23;;;;;;;3.03;1.67;;;;;;;16.00;23.03;95114.47;5026798;28;20255;-66
2023/04/28 11:33:53;;;;;;;2.63;1.42;;;;;;;16.02;22.74;95105.34;5030533;28;20193;-66
2023/04/28 11:36:23;;;;;;;4.43;1.80;;;;;;;16.54;22.78;95108.84;5025976;28;20530;-69
2023/04/28 11:38:48;;;;;;;2.63;1.70;;;;;;;16.63;21.83;95106.91;5024579;28;20210;-70